Time,TemperatureF,DewpointF,PressureIn,WindDirection,WindDirectionDegrees,WindSpeedMPH,WindSpeedGustMPH,Humidity,HourlyPrecipIn,Conditions,Clouds,dailyrainin,SolarRadiationWatts/m^2,SoftwareType,DateUTC
2013-04-07 00:00:00,56.0,43.0,-100.00,SE,135,10.0,-999.0,63,-99.99,,,-99.99,0.000000,,2013-04-07 04:00:00,
2013-04-07 00:43:00,56.0,43.0,-100.00,SE,135,10.0,-999.0,63,-99.99,,,-99.99,0.000000,,2013-04-07 04:43:00,
2013-04-07 00:53:00,56.0,43.0,-100.00,SE,135,10.0,-999.0,63,-99.99,,,-99.99,0.000000,,2013-04-07 04:53:00,
2013-04-07 01:00:00,54.0,45.0,-100.00,SE,135,11.0,-999.0,70,0.05,,,-99.99,0.000000,,2013-04-07 05:00:00,
2013-04-07 01:43:00,54.0,45.0,-100.00,SE,135,11.0,-999.0,70,0.05,,,-99.99,0.000000,,2013-04-07 05:43:00,
2013-04-07 01:52:00,54.0,45.0,-100.00,SE,135,11.0,-999.0,70,0.05,,,-99.99,0.000000,,2013-04-07 05:52:00,
2013-04-07 02:00:00,51.0,46.0,-100.00,SE,135,8.0,-999.0,80,0.07,,,-99.99,1.160000,,2013-04-07 06:00:00,
2013-04-07 02:43:00,51.0,46.0,-100.00,SE,135,8.0,-999.0,80,0.07,,,-99.99,1.160000,,2013-04-07 06:43:00,
2013-04-07 02:52:00,51.0,46.0,-100.00,SE,135,8.0,-999.0,80,0.07,,,-99.99,1.160000,,2013-04-07 06:52:00,
2013-04-07 03:00:00,51.0,44.0,-100.00,SSE,157,17.0,-999.0,75,0.02,,,-99.99,1.160000,,2013-04-07 07:00:00,
2013-04-07 03:42:00,51.0,44.0,-100.00,SSE,157,17.0,-999.0,75,0.02,,,-99.99,1.160000,,2013-04-07 07:42:00,
2013-04-07 03:52:00,51.0,44.0,-100.00,SSE,157,17.0,-999.0,75,0.02,,,-99.99,1.160000,,2013-04-07 07:52:00,
2013-04-07 04:00:00,51.0,45.0,-100.00,SSE,157,16.0,-999.0,80,0.02,,,-99.99,1.160000,,2013-04-07 08:00:00,
2013-04-07 04:43:00,51.0,45.0,-100.00,SSE,157,16.0,-999.0,80,0.02,,,-99.99,1.160000,,2013-04-07 08:43:00,
2013-04-07 04:53:00,51.0,45.0,-100.00,SSE,157,16.0,-999.0,80,0.02,,,-99.99,1.160000,,2013-04-07 08:53:00,
2013-04-07 05:00:00,49.0,44.0,-100.00,South,180,15.0,-999.0,81,-99.99,,,-99.99,1.160000,,2013-04-07 09:00:00,
2013-04-07 05:45:00,49.0,44.0,-100.00,South,180,15.0,-999.0,81,-99.99,,,-99.99,1.160000,,2013-04-07 09:45:00,
2013-04-07 05:54:00,49.0,44.0,-100.00,South,180,15.0,-999.0,81,-99.99,,,-99.99,1.160000,,2013-04-07 09:54:00,
2013-04-07 06:00:00,45.0,41.0,-100.00,SW,225,11.0,-999.0,87,-99.99,,,-99.99,1.160000,,2013-04-07 10:00:00,
2013-04-07 06:43:00,45.0,41.0,-100.00,SW,225,11.0,-999.0,87,-99.99,,,-99.99,1.160000,,2013-04-07 10:43:00,
2013-04-07 06:54:00,45.0,41.0,-100.00,SW,225,11.0,-999.0,87,-99.99,,,-99.99,1.160000,,2013-04-07 10:54:00,
2013-04-07 07:00:00,42.0,37.0,-100.00,WSW,247,12.0,-999.0,81,-99.99,,,-99.99,1.160000,,2013-04-07 11:00:00,
2013-04-07 07:43:00,42.0,37.0,-100.00,WSW,247,12.0,-999.0,81,-99.99,,,-99.99,1.160000,,2013-04-07 11:43:00,
2013-04-07 07:53:00,42.0,37.0,-100.00,WSW,247,12.0,-999.0,81,-99.99,,,-99.99,1.160000,,2013-04-07 11:53:00,
2013-04-07 08:00:00,41.0,36.0,-100.00,WSW,247,9.0,-999.0,83,-99.99,,,-99.99,4.640000,,2013-04-07 12:00:00,
2013-04-07 08:43:00,41.0,36.0,-100.00,WSW,247,9.0,-999.0,83,-99.99,,,-99.99,4.640000,,2013-04-07 12:43:00,
2013-04-07 08:54:00,41.0,36.0,-100.00,WSW,247,9.0,-999.0,83,-99.99,,,-99.99,4.640000,,2013-04-07 12:54:00,
2013-04-07 09:00:00,40.0,35.0,-100.00,SW,225,8.0,-999.0,81,-99.99,,,-99.99,30.160000,,2013-04-07 13:00:00,
2013-04-07 09:43:00,40.0,35.0,-100.00,SW,225,8.0,-999.0,81,-99.99,,,-99.99,30.160000,,2013-04-07 13:43:00,
2013-04-07 09:53:00,40.0,35.0,-100.00,SW,225,8.0,-999.0,81,-99.99,,,-99.99,30.160000,,2013-04-07 13:53:00,
2013-04-07 11:00:00,39.0,33.0,-100.00,SW,225,10.0,-999.0,77,-99.99,,,-99.99,90.480003,,2013-04-07 15:00:00,
2013-04-07 11:45:00,39.0,33.0,-100.00,SW,225,10.0,-999.0,77,-99.99,,,-99.99,90.480003,,2013-04-07 15:45:00,
2013-04-07 11:55:00,39.0,33.0,-100.00,SW,225,10.0,-999.0,77,-99.99,,,-99.99,90.480003,,2013-04-07 15:55:00,
2013-04-07 12:00:00,40.0,32.0,-100.00,WSW,247,10.0,-999.0,75,-99.99,,,-99.99,177.479996,,2013-04-07 16:00:00,
2013-04-07 12:44:00,40.0,32.0,-100.00,WSW,247,10.0,-999.0,75,-99.99,,,-99.99,177.479996,,2013-04-07 16:44:00,
2013-04-07 12:54:00,40.0,32.0,-100.00,WSW,247,10.0,-999.0,75,-99.99,,,-99.99,177.479996,,2013-04-07 16:54:00,
2013-04-07 13:00:00,41.0,33.0,-100.00,WSW,247,10.0,-999.0,72,-99.99,,,-99.99,305.079987,,2013-04-07 17:00:00,
2013-04-07 13:43:00,41.0,33.0,-100.00,WSW,247,10.0,-999.0,72,-99.99,,,-99.99,305.079987,,2013-04-07 17:43:00,
2013-04-07 13:54:00,41.0,33.0,-100.00,WSW,247,10.0,-999.0,72,-99.99,,,-99.99,305.079987,,2013-04-07 17:54:00,
2013-04-07 14:00:00,41.0,32.0,-100.00,WSW,247,11.0,-999.0,69,-99.99,,,-99.99,339.880005,,2013-04-07 18:00:00,
2013-04-07 14:44:00,41.0,32.0,-100.00,WSW,247,11.0,-999.0,69,-99.99,,,-99.99,339.880005,,2013-04-07 18:44:00,
2013-04-07 14:53:00,41.0,32.0,-100.00,WSW,247,11.0,-999.0,69,-99.99,,,-99.99,339.880005,,2013-04-07 18:53:00,
2013-04-07 15:00:00,41.0,31.0,-100.00,WSW,247,10.0,-999.0,66,-99.99,,,-99.99,312.040009,,2013-04-07 19:00:00,
2013-04-07 15:43:00,41.0,31.0,-100.00,WSW,247,10.0,-999.0,66,-99.99,,,-99.99,312.040009,,2013-04-07 19:43:00,
2013-04-07 15:55:00,41.0,31.0,-100.00,WSW,247,10.0,-999.0,66,-99.99,,,-99.99,312.040009,,2013-04-07 19:55:00,
2013-04-07 16:00:00,42.0,31.0,-100.00,WSW,247,9.0,-999.0,63,-99.99,,,-99.99,339.880005,,2013-04-07 20:00:00,
2013-04-07 16:44:00,42.0,31.0,-100.00,WSW,247,9.0,-999.0,63,-99.99,,,-99.99,339.880005,,2013-04-07 20:44:00,
2013-04-07 17:00:00,43.0,31.0,-100.00,WSW,247,8.0,-999.0,62,-99.99,,,-99.99,424.559998,,2013-04-07 21:00:00,
2013-04-07 17:45:00,43.0,31.0,-100.00,WSW,247,8.0,-999.0,62,-99.99,,,-99.99,424.559998,,2013-04-07 21:45:00,
2013-04-07 17:55:00,43.0,31.0,-100.00,WSW,247,8.0,-999.0,62,-99.99,,,-99.99,424.559998,,2013-04-07 21:55:00,
2013-04-07 18:00:00,44.0,31.0,-100.00,West,270,8.0,-999.0,58,-99.99,,,-99.99,406.000000,,2013-04-07 22:00:00,
2013-04-07 18:44:00,44.0,31.0,-100.00,West,270,8.0,-999.0,58,-99.99,,,-99.99,406.000000,,2013-04-07 22:44:00,
2013-04-07 18:53:00,44.0,31.0,-100.00,West,270,8.0,-999.0,58,-99.99,,,-99.99,406.000000,,2013-04-07 22:53:00,
2013-04-07 19:00:00,43.0,30.0,-100.00,SW,225,4.0,-999.0,58,-99.99,,,-99.99,237.800003,,2013-04-07 23:00:00,
2013-04-07 19:43:00,43.0,30.0,-100.00,SW,225,4.0,-999.0,58,-99.99,,,-99.99,237.800003,,2013-04-07 23:43:00,
2013-04-07 19:53:00,43.0,30.0,-100.00,SW,225,4.0,-999.0,58,-99.99,,,-99.99,237.800003,,2013-04-07 23:53:00,
2013-04-07 20:00:00,42.0,30.0,-100.00,South,180,2.0,-999.0,61,-99.99,,,-99.99,70.760002,,2013-04-08 00:00:00,
2013-04-07 20:43:00,42.0,30.0,-100.00,South,180,2.0,-999.0,61,-99.99,,,-99.99,70.760002,,2013-04-08 00:43:00,
2013-04-07 20:53:00,42.0,30.0,-100.00,South,180,2.0,-999.0,61,-99.99,,,-99.99,70.760002,,2013-04-08 00:53:00,
2013-04-07 21:00:00,39.0,30.0,-100.00,West,270,1.0,-999.0,70,-99.99,,,-99.99,4.640000,,2013-04-08 01:00:00,
2013-04-07 21:44:00,39.0,30.0,-100.00,West,270,1.0,-999.0,70,-99.99,,,-99.99,4.640000,,2013-04-08 01:44:00,
2013-04-07 21:55:00,39.0,30.0,-100.00,West,270,1.0,-999.0,70,-99.99,,,-99.99,4.640000,,2013-04-08 01:55:00,
2013-04-07 22:00:00,36.0,31.0,-100.00,NW,315,0.0,-999.0,82,-99.99,,,-99.99,1.160000,,2013-04-08 02:00:00,
2013-04-07 22:54:00,36.0,31.0,-100.00,NW,315,0.0,-999.0,82,-99.99,,,-99.99,1.160000,,2013-04-08 02:54:00,
2013-04-07 23:00:00,33.0,30.0,-100.00,NNE,22,0.0,-999.0,87,-99.99,,,-99.99,0.000000,,2013-04-08 03:00:00,
2013-04-07 23:48:00,33.0,30.0,-100.00,NNE,22,0.0,-999.0,87,-99.99,,,-99.99,0.000000,,2013-04-08 03:48:00,